Rockway

*Note: All times are displayed in the local standard time of the station location.
**Rain - Equipment is designed to accurately record liquid precipitation; under conditions when precipitation is not in liquid form, the data displayed may not properly reflect rainfall values.

Date Max Temp
(°C)
Min Temp
(°C)
Avg Temp
(°C)
Rain (mm) Avg RH (%)
Fri, Feb 15, 2019 5.1 -4.5 0.7 2.8 74.5
Thu, Feb 14, 2019 3.0 -4.8 -1.3 0.0 72.7
Wed, Feb 13, 2019 0.9 -4.7 -2.7 0.2 78.4
Tue, Feb 12, 2019 2.5 -5.5 -2.3 3.8 89.5
Mon, Feb 11, 2019 -2.2 -5.0 -3.6 0.0 72.9
Sun, Feb 10, 2019 -2.3 -10.5 -6.1 0.0 70.6
Sat, Feb 09, 2019 -4.7 -10.1 -7.3 0.0 63.3
DateTime Avg Temp (°C) Rain (mm) RH (%)
Sat, Feb 16, 2019 16:00 -2.0 0.0 55.3
Sat, Feb 16, 2019 15:00 -2.3 0.0 55.7
Sat, Feb 16, 2019 14:00 -2.6 0.0 58.0
Sat, Feb 16, 2019 13:00 -3.0 0.0 58.3
Sat, Feb 16, 2019 12:00 -3.7 0.0 60.4
Sat, Feb 16, 2019 11:00 -3.8 0.0 62.0
Sat, Feb 16, 2019 10:00 -4.0 0.0 62.5
Sat, Feb 16, 2019 09:00 -4.0 0.0 60.5
Sat, Feb 16, 2019 08:00 -4.6 0.0 65.7
Sat, Feb 16, 2019 07:00 -4.2 0.0 69.1
Sat, Feb 16, 2019 06:00 -3.6 0.0 73.5
Sat, Feb 16, 2019 05:00 -3.8 0.0 78.6
Sat, Feb 16, 2019 04:00 -3.9 0.0 77.7
Sat, Feb 16, 2019 03:00 -3.9 0.0 76.7
Sat, Feb 16, 2019 02:00 -3.9 0.0 74.0
Sat, Feb 16, 2019 01:00 -4.2 0.0 72.4
Sat, Feb 16, 2019 00:00 -4.2 0.0 70.2
Fri, Feb 15, 2019 23:00 -4.5 0.0 68.7
Fri, Feb 15, 2019 22:00 -4.0 0.0 67.0
Fri, Feb 15, 2019 21:00 -3.4 0.0 64.8
Fri, Feb 15, 2019 20:00 -2.6 0.0 66.5
Fri, Feb 15, 2019 19:00 -2.2 0.0 64.0
Fri, Feb 15, 2019 18:00 -1.4 0.0 64.0
Fri, Feb 15, 2019 17:00 -0.6 0.0 61.7
Fri, Feb 15, 2019 16:00 -0.1 0.0 66.2
Fri, Feb 15, 2019 15:00 0.2 0.0 66.2
Fri, Feb 15, 2019 14:00 1.4 0.0 63.6
Fri, Feb 15, 2019 13:00 2.0 0.0 61.1
Fri, Feb 15, 2019 12:00 2.4 0.0 66.8
Fri, Feb 15, 2019 11:00 3.5 0.0 73.2
Fri, Feb 15, 2019 10:00 3.9 0.0 85.2
Fri, Feb 15, 2019 09:00 3.4 0.2 94.1
Fri, Feb 15, 2019 08:00 3.8 0.0 91.8
Fri, Feb 15, 2019 07:00 3.8 0.2 95.6
Fri, Feb 15, 2019 06:00 3.9 1.2 94.1
Fri, Feb 15, 2019 05:00 4.1 0.6 89.5
Fri, Feb 15, 2019 04:00 4.8 0.4 74.8
Fri, Feb 15, 2019 03:00 3.8 0.2 70.8
Fri, Feb 15, 2019 02:00 0.2 0.0 82.4
Fri, Feb 15, 2019 01:00 -0.3 0.0 85.4
Fri, Feb 15, 2019 00:00 -0.2 0.0 82.0
Thu, Feb 14, 2019 23:00 -0.4 0.0 80.4
Thu, Feb 14, 2019 22:00 -1.1 0.0 86.0
Thu, Feb 14, 2019 21:00 -1.7 0.0 88.4
Thu, Feb 14, 2019 20:00 -1.7 0.0 85.4
Thu, Feb 14, 2019 19:00 -1.1 0.0 81.6
Thu, Feb 14, 2019 18:00 1.1 0.0 64.0
Thu, Feb 14, 2019 17:00 2.2 0.0 58.8


asterix Register now to access more data! asterix